Time;durP1;ratioP1;P1;durP2;ratioP2;P2;SDS_P1;SDS_P2;PMS_P1;PMS_P2;Temp;Humidity;BMP_temperature;BMP_pressure;BME280_temperature;BME280_humidity;BME280_pressure;Samples;Min_cycle;Max_cycle;Signal;HPM_P1;HPM_P2
2022/10/11 00:01:02;;;;;;;13.30;9.65;;;;;;;23.74;34.73;102237.94;4185306;28;20114;-59
2022/10/11 00:03:05;;;;;;;13.43;9.13;;;;;;;23.73;34.69;102236.28;4191899;28;20369;-58
2022/10/11 00:05:10;;;;;;;13.00;9.55;;;;;;;23.75;34.94;102245.22;4197502;28;20090;-59
2022/10/11 00:07:14;;;;;;;14.40;8.55;;;;;;;23.74;34.96;102251.94;4186108;28;20045;-59
2022/10/11 00:09:18;;;;;;;14.15;9.25;;;;;;;23.76;34.96;102246.06;4193352;28;20114;-60
2022/10/11 00:11:20;;;;;;;20.75;9.63;;;;;;;23.76;35.23;102246.06;4191586;28;20037;-60
2022/10/11 00:13:24;;;;;;;22.13;10.30;;;;;;;23.70;35.91;102250.78;4184001;28;20036;-58
2022/10/11 00:15:25;;;;;;;18.65;10.30;;;;;;;23.44;35.69;102215.34;4189818;28;20045;-59
2022/10/11 00:17:27;;;;;;;14.48;9.48;;;;;;;23.57;35.92;102242.81;4193358;28;20036;-60
2022/10/11 00:19:28;;;;;;;15.95;9.48;;;;;;;23.35;36.17;102217.78;4179858;28;20037;-59
2022/10/11 00:21:30;;;;;;;17.02;9.63;;;;;;;23.38;36.01;102222.00;4194143;28;20048;-60
2022/10/11 00:23:35;;;;;;;18.50;7.60;;;;;;;23.42;35.94;102239.91;4193326;28;20553;-60
2022/10/11 00:25:36;;;;;;;13.98;8.50;;;;;;;23.54;35.86;102260.09;4192242;28;20048;-60
2022/10/11 00:27:38;;;;;;;15.13;6.97;;;;;;;23.53;36.07;102261.22;4189351;28;20378;-59
2022/10/11 00:29:39;;;;;;;9.82;7.38;;;;;;;23.54;36.21;102265.69;4183783;28;20096;-59
2022/10/11 00:31:41;;;;;;;13.95;6.80;;;;;;;23.36;36.02;102235.38;4189274;28;20041;-59
2022/10/11 00:33:42;;;;;;;10.52;6.82;;;;;;;23.54;36.27;102265.69;4182558;28;20033;-60
2022/10/11 00:35:47;;;;;;;13.20;6.60;;;;;;;23.48;36.45;102255.59;4199587;28;20098;-59
2022/10/11 00:37:48;;;;;;;13.18;6.20;;;;;;;23.53;36.31;102267.66;4200297;28;20044;-59
2022/10/11 00:39:50;;;;;;;14.82;6.32;;;;;;;23.54;36.27;102271.28;4196198;28;20426;-59
2022/10/11 00:41:51;;;;;;;13.02;5.95;;;;;;;23.55;36.45;102275.78;4184723;28;20095;-59
2022/10/11 00:44:21;;;;;;;11.10;6.50;;;;;;;23.53;36.10;102275.19;4185455;28;20110;-59
2022/10/11 00:46:28;;;;;;;11.60;5.18;;;;;;;23.55;36.11;102282.22;4199678;28;20040;-59
2022/10/11 00:48:41;;;;;;;10.07;5.55;;;;;;;23.55;36.46;102284.16;4199103;28;20094;-59
2022/10/11 00:50:42;;;;;;;10.43;5.03;;;;;;;23.47;36.41;102267.88;4183271;28;20045;-59
2022/10/11 00:52:52;;;;;;;7.05;4.50;;;;;;;23.54;36.15;102283.28;4183014;28;20041;-60
2022/10/11 00:54:55;;;;;;;11.77;4.60;;;;;;;23.55;36.43;102279.41;4185616;28;20472;-60
2022/10/11 00:57:06;;;;;;;7.95;4.90;;;;;;;23.56;36.08;102288.66;4186315;28;20385;-60
2022/10/11 00:59:15;;;;;;;11.98;4.72;;;;;;;23.57;36.32;102293.13;4186466;28;20546;-60
2022/10/11 01:01:16;;;;;;;10.05;4.32;;;;;;;23.58;36.42;102290.03;4184025;28;20033;-60
2022/10/11 01:03:24;;;;;;;8.02;4.88;;;;;;;23.58;36.03;102294.78;4198165;28;20101;-60
2022/10/11 01:05:25;;;;;;;10.27;4.47;;;;;;;23.57;36.18;102296.75;4199338;28;20040;-60
2022/10/11 01:07:31;;;;;;;8.70;4.60;;;;;;;23.55;36.47;102289.75;4188227;28;20049;-60
2022/10/11 01:09:32;;;;;;;14.57;5.00;;;;;;;23.58;36.39;102297.59;4184884;28;20049;-61
2022/10/11 01:11:37;;;;;;;10.13;4.25;;;;;;;23.49;36.44;102288.84;4181098;28;20036;-61
2022/10/11 01:14:07;;;;;;;7.45;4.50;;;;;;;23.46;36.49;102295.00;4192417;28;20094;-60
2022/10/11 01:16:43;;;;;;;8.98;4.38;;;;;;;23.56;36.49;102309.03;4184457;28;20041;-62
2022/10/11 01:18:57;;;;;;;12.55;4.07;;;;;;;23.59;36.28;102318.81;4183016;28;20041;-60
2022/10/11 01:21:24;;;;;;;8.00;3.88;;;;;;;23.56;36.67;102320.22;4182582;28;20037;-60
2022/10/11 01:23:45;;;;;;;10.88;3.72;;;;;;;23.57;36.63;102319.09;4193140;28;20438;-60
2022/10/11 01:26:20;;;;;;;8.38;4.07;;;;;;;23.58;36.52;102317.16;4198771;28;20045;-60
2022/10/11 01:28:41;;;;;;;9.63;3.70;;;;;;;23.60;36.48;102320.53;4184911;28;20454;-60
2022/10/11 01:30:43;;;;;;;5.32;3.78;;;;;;;23.63;36.79;102327.53;4182345;28;20045;-59
2022/10/11 01:32:56;;;;;;;6.72;3.65;;;;;;;23.60;36.90;102326.13;4182656;28;20036;-60
2022/10/11 01:35:43;;;;;;;6.45;3.40;;;;;;;23.45;36.53;102300.81;4197649;28;20062;-60
2022/10/11 01:37:58;;;;;;;6.10;3.10;;;;;;;23.60;36.66;102320.53;4198828;28;20070;-60
2022/10/11 01:40:10;;;;;;;5.88;3.20;;;;;;;23.65;36.93;102328.16;4193525;28;20036;-60
2022/10/11 01:42:16;;;;;;;12.90;3.80;;;;;;;23.63;36.71;102325.56;4198672;28;20041;-60
2022/10/11 01:44:19;;;;;;;10.23;3.45;;;;;;;23.55;36.89;102318.53;4197715;28;20036;-60
2022/10/11 01:46:21;;;;;;;6.43;3.20;;;;;;;23.62;36.87;102323.88;4186320;28;20433;-60
2022/10/11 01:48:25;;;;;;;5.80;2.90;;;;;;;23.62;36.88;102335.06;4190351;28;20049;-59
2022/10/11 01:50:55;;;;;;;7.93;3.35;;;;;;;23.60;36.58;102331.72;4189062;28;20442;-60
2022/10/11 01:53:09;;;;;;;5.97;2.75;;;;;;;23.63;36.98;102338.69;4182406;28;20094;-60
2022/10/11 01:55:31;;;;;;;5.10;3.05;;;;;;;23.65;36.93;102340.16;4197649;28;20040;-59
2022/10/11 01:58:06;;;;;;;5.72;2.95;;;;;;;23.62;36.77;102348.19;4201365;28;20541;-59
2022/10/11 02:00:13;;;;;;;7.97;3.30;;;;;;;23.67;36.97;102348.28;4188756;28;20044;-59
2022/10/11 02:02:35;;;;;;;4.55;2.70;;;;;;;22.89;36.79;102231.31;4194164;28;20036;-59
2022/10/11 02:04:52;;;;;;;5.40;2.88;;;;;;;23.66;36.79;102353.03;4191949;28;20033;-60
2022/10/11 02:07:14;;;;;;;2.95;2.65;;;;;;;23.63;36.65;102366.66;4181772;28;20488;-59
2022/10/11 02:09:37;;;;;;;7.15;2.90;;;;;;;23.65;36.99;102365.31;4182088;28;20044;-60
2022/10/11 02:11:38;;;;;;;5.18;2.70;;;;;;;23.66;36.38;102367.00;4188534;28;20044;-59
2022/10/11 02:14:01;;;;;;;8.23;2.90;;;;;;;23.65;36.69;102368.13;4196323;28;20102;-59
2022/10/11 02:16:09;;;;;;;5.40;2.42;;;;;;;23.66;36.55;102372.59;4186538;28;20381;-59
2022/10/11 02:18:21;;;;;;;4.28;2.35;;;;;;;23.63;36.85;102369.44;4181379;28;20037;-59
2022/10/11 02:20:29;;;;;;;4.43;2.50;;;;;;;23.65;36.33;102370.91;4181086;28;20110;-59
2022/10/11 02:22:35;;;;;;;5.13;2.40;;;;;;;23.68;36.61;102375.09;4193244;28;20048;-59
2022/10/11 02:24:41;;;;;;;6.47;2.90;;;;;;;23.06;36.32;102275.88;4197836;28;20048;-60
2022/10/11 02:26:51;;;;;;;5.93;2.42;;;;;;;23.68;36.39;102383.50;4193752;28;20044;-59
2022/10/11 02:28:56;;;;;;;3.58;2.30;;;;;;;23.68;36.74;102377.91;4188862;28;20435;-59
2022/10/11 02:31:06;;;;;;;4.15;2.80;;;;;;;23.68;36.78;102391.88;4181870;28;20045;-59
2022/10/11 02:33:12;;;;;;;7.22;2.58;;;;;;;23.68;36.73;102391.88;4188804;28;20383;-60
2022/10/11 02:35:14;;;;;;;6.50;2.78;;;;;;;23.68;36.53;102389.91;4195746;28;20357;-60
2022/10/11 02:37:40;;;;;;;3.65;2.38;;;;;;;23.66;36.85;102386.56;4198119;28;20032;-59
2022/10/11 02:39:44;;;;;;;5.00;2.50;;;;;;;23.58;36.78;102382.25;4189206;28;20037;-60
2022/10/11 02:41:46;;;;;;;4.60;2.83;;;;;;;23.69;36.62;102397.22;4180724;28;20091;-60
2022/10/11 02:43:56;;;;;;;5.05;2.80;;;;;;;23.68;36.77;102392.72;4194125;28;20040;-59
2022/10/11 02:46:01;;;;;;;3.38;2.42;;;;;;;23.68;36.78;102398.31;4198124;28;20036;-59
2022/10/11 02:48:05;;;;;;;3.63;2.30;;;;;;;23.40;36.81;102348.25;4181875;28;20045;-59
2022/10/11 02:50:09;;;;;;;5.07;2.40;;;;;;;23.69;36.58;102397.22;4181400;28;20050;-59
2022/10/11 02:52:13;;;;;;;4.90;3.17;;;;;;;23.69;36.67;102402.81;4187371;28;20102;-59
2022/10/11 02:54:16;;;;;;;5.07;2.40;;;;;;;23.53;36.75;102375.78;4197903;28;20537;-59
2022/10/11 02:56:18;;;;;;;4.93;2.80;;;;;;;23.70;36.82;102401.69;4180320;28;20041;-59
2022/10/11 02:58:20;;;;;;;4.55;2.45;;;;;;;23.70;36.74;102398.06;4180981;28;20040;-59
2022/10/11 03:00:21;;;;;;;6.22;2.30;;;;;;;23.70;36.43;102395.28;4179824;28;20102;-60
2022/10/11 03:02:22;;;;;;;6.38;2.70;;;;;;;23.70;36.55;102392.47;4182460;28;20041;-59
2022/10/11 03:04:30;;;;;;;6.53;2.95;;;;;;;23.62;36.61;102376.16;4193962;28;20040;-59
2022/10/11 03:06:31;;;;;;;6.60;2.60;;;;;;;23.65;36.46;102390.47;4181504;28;20040;-60
2022/10/11 03:08:33;;;;;;;5.22;2.22;;;;;;;23.69;36.84;102407.56;4187387;28;20488;-60
2022/10/11 03:10:35;;;;;;;5.47;2.47;;;;;;;23.68;36.61;102401.09;4197716;28;20045;-60
2022/10/11 03:12:36;;;;;;;6.80;2.28;;;;;;;23.70;36.69;102398.91;4192696;28;20101;-60
2022/10/11 03:14:37;;;;;;;3.55;2.10;;;;;;;23.69;36.74;102402.81;4182394;28;20082;-60
2022/10/11 03:16:39;;;;;;;4.10;2.20;;;;;;;23.43;36.55;102359.75;4183920;28;20101;-59
2022/10/11 03:18:40;;;;;;;4.32;2.58;;;;;;;23.71;36.82;102406.16;4189279;28;20044;-59
2022/10/11 03:20:41;;;;;;;3.85;2.38;;;;;;;23.69;36.92;102397.22;4180574;28;20041;-60
2022/10/11 03:22:43;;;;;;;5.47;2.75;;;;;;;23.65;36.77;102393.28;4182952;28;20040;-60
2022/10/11 03:24:44;;;;;;;4.30;2.28;;;;;;;23.70;36.66;102398.91;4196449;28;20481;-60
2022/10/11 03:26:54;;;;;;;6.57;2.47;;;;;;;23.68;37.10;102392.72;4197166;28;20041;-60
2022/10/11 03:29:01;;;;;;;3.88;2.17;;;;;;;23.68;37.06;102395.50;4183336;28;20416;-60
2022/10/11 03:31:03;;;;;;;3.60;2.25;;;;;;;23.72;37.03;102396.66;4181214;28;20431;-60
2022/10/11 03:33:07;;;;;;;7.85;2.67;;;;;;;23.61;37.13;102380.91;4180809;28;20041;-59
2022/10/11 03:35:08;;;;;;;10.80;2.58;;;;;;;23.76;37.22;102408.16;4180967;28;20037;-60
2022/10/11 03:37:13;;;;;;;3.05;2.22;;;;;;;23.74;37.14;102405.66;4184031;28;20107;-60
2022/10/11 03:39:14;;;;;;;12.52;2.50;;;;;;;23.74;37.04;102397.25;4192579;28;20117;-60
2022/10/11 03:41:15;;;;;;;9.23;2.83;;;;;;;23.74;37.09;102394.47;4197118;28;20090;-60
2022/10/11 03:43:20;;;;;;;41.60;4.15;;;;;;;23.79;37.27;102396.47;4186659;28;20045;-60
2022/10/11 03:45:21;;;;;;;18.63;2.92;;;;;;;23.58;37.10;102364.66;4189973;28;20037;-59
2022/10/11 03:47:23;;;;;;;14.15;2.92;;;;;;;23.84;36.89;102397.34;4180890;28;20435;-60
2022/10/11 03:49:27;;;;;;;16.27;2.85;;;;;;;23.76;37.09;102386.66;4180565;28;20041;-60
2022/10/11 03:51:30;;;;;;;8.45;3.13;;;;;;;23.84;37.02;102390.91;4181476;28;20036;-60
2022/10/11 03:53:31;;;;;;;7.32;2.58;;;;;;;23.84;36.90;102388.97;4180265;28;20029;-60
2022/10/11 03:55:32;;;;;;;10.15;2.92;;;;;;;23.87;36.80;102404.38;4206543;28;20040;-60
2022/10/11 03:57:34;;;;;;;8.75;2.92;;;;;;;23.77;36.28;102388.31;4213852;28;20077;-60
2022/10/11 03:59:38;;;;;;;7.43;2.75;;;;;;;23.78;36.31;102390.03;4208771;28;20045;-60
2022/10/11 04:01:39;;;;;;;6.78;2.60;;;;;;;23.87;36.46;102397.91;4199422;28;20049;-59
2022/10/11 04:03:43;;;;;;;9.05;2.85;;;;;;;23.87;36.36;102404.38;4200282;28;20048;-60
2022/10/11 04:05:44;;;;;;;5.57;2.38;;;;;;;23.65;36.25;102367.28;4200948;28;20041;-60
2022/10/11 04:07:46;;;;;;;7.90;2.88;;;;;;;23.88;36.38;102394.88;4200651;28;20033;-60
2022/10/11 04:09:47;;;;;;;11.65;2.63;;;;;;;23.89;36.34;102398.50;4199953;28;20526;-60
2022/10/11 04:11:48;;;;;;;3.95;2.22;;;;;;;23.88;36.13;102400.47;4200685;28;20033;-60
2022/10/11 04:13:49;;;;;;;5.93;2.45;;;;;;;23.89;36.19;102402.16;4200480;28;20553;-60
2022/10/11 04:15:51;;;;;;;4.15;2.35;;;;;;;23.87;36.49;102403.50;4195692;28;20036;-60
2022/10/11 04:17:52;;;;;;;6.60;2.63;;;;;;;23.88;36.29;102408.00;4191527;28;20046;-60
2022/10/11 04:19:53;;;;;;;7.95;2.92;;;;;;;23.88;36.31;102410.81;4200128;28;20048;-60
2022/10/11 04:21:54;;;;;;;3.90;2.00;;;;;;;23.79;36.31;102391.72;4192869;28;20070;-60
2022/10/11 04:23:56;;;;;;;3.60;2.30;;;;;;;23.88;36.83;102405.22;4182998;28;20489;-60
2022/10/11 04:25:57;;;;;;;5.13;2.33;;;;;;;23.82;36.39;102394.00;4184155;28;20048;-60
2022/10/11 04:28:06;;;;;;;3.65;2.50;;;;;;;23.89;36.62;102406.91;4183666;28;20041;-60
2022/10/11 04:30:08;;;;;;;3.08;2.00;;;;;;;23.74;36.49;102386.09;4184007;28;20041;-59
2022/10/11 04:32:09;;;;;;;7.57;2.47;;;;;;;23.84;36.65;102407.69;4210683;28;20040;-60
2022/10/11 04:34:14;;;;;;;3.53;2.22;;;;;;;23.81;36.75;102399.84;4207496;28;20041;-60
2022/10/11 04:36:15;;;;;;;4.10;2.35;;;;;;;23.82;36.73;102407.97;4200386;28;20040;-60
2022/10/11 04:38:16;;;;;;;3.22;2.28;;;;;;;23.86;36.83;102410.22;4199964;28;20116;-60
2022/10/11 04:40:17;;;;;;;4.53;2.22;;;;;;;23.81;36.45;102406.25;4199915;28;20032;-60
2022/10/11 04:42:19;;;;;;;4.55;2.80;;;;;;;23.84;36.63;102411.31;4199134;28;20041;-60
2022/10/11 04:44:21;;;;;;;5.28;2.55;;;;;;;23.82;36.58;102405.19;4200188;28;20048;-60
2022/10/11 04:46:23;;;;;;;6.97;2.20;;;;;;;23.56;36.75;102369.66;4199866;28;20045;-60
2022/10/11 04:48:24;;;;;;;5.07;2.38;;;;;;;23.82;36.44;102415.47;4197325;28;20041;-60
2022/10/11 04:50:26;;;;;;;2.85;2.13;;;;;;;23.82;36.75;102413.56;4188346;28;20067;-60
2022/10/11 04:52:33;;;;;;;4.35;2.22;;;;;;;23.82;36.87;102405.19;4182736;28;20096;-59
2022/10/11 04:54:37;;;;;;;5.57;2.15;;;;;;;23.81;36.62;102411.84;4183465;28;20108;-60
2022/10/11 04:56:38;;;;;;;7.68;2.72;;;;;;;23.82;36.73;102416.34;4183233;28;20045;-60
2022/10/11 04:58:40;;;;;;;4.10;2.33;;;;;;;23.83;36.91;102409.66;4183225;28;20218;-60
2022/10/11 05:00:41;;;;;;;5.15;2.20;;;;;;;23.81;36.75;102409.06;4183417;28;20083;-60
2022/10/11 05:02:42;;;;;;;4.38;1.83;;;;;;;23.79;36.92;102408.50;4183143;28;20040;-60
2022/10/11 05:04:44;;;;;;;3.55;1.92;;;;;;;23.79;37.13;102404.84;4182961;28;20472;-60
2022/10/11 05:06:45;;;;;;;4.95;2.65;;;;;;;23.76;36.84;102414.59;4185606;28;20040;-59
2022/10/11 05:08:46;;;;;;;3.72;2.20;;;;;;;23.80;37.19;102421.34;4187933;28;20086;-60
2022/10/11 05:11:10;;;;;;;4.07;2.45;;;;;;;23.79;36.97;102418.84;4199109;28;20094;-60
2022/10/11 05:13:11;;;;;;;2.88;1.90;;;;;;;23.72;37.20;102407.00;4190817;28;20041;-60
2022/10/11 05:15:12;;;;;;;4.40;2.45;;;;;;;23.79;36.84;102424.41;4193010;28;20048;-60
2022/10/11 05:17:22;;;;;;;7.05;2.55;;;;;;;23.79;37.00;102419.69;4198493;28;20040;-60
2022/10/11 05:19:26;;;;;;;3.85;2.22;;;;;;;23.80;36.86;102421.34;4199611;28;20033;-60
2022/10/11 05:21:29;;;;;;;4.10;2.10;;;;;;;23.80;37.05;102426.09;4199538;28;20048;-60
2022/10/11 05:23:32;;;;;;;4.43;2.00;;;;;;;23.56;37.02;102386.44;4198730;28;20048;-59
2022/10/11 05:25:36;;;;;;;4.18;2.33;;;;;;;23.81;36.61;102428.63;4199596;28;20098;-60
2022/10/11 05:27:38;;;;;;;3.05;2.22;;;;;;;23.80;36.61;102421.34;4199100;28;20057;-60
2022/10/11 05:29:42;;;;;;;3.45;2.10;;;;;;;23.80;36.88;102426.09;4196529;28;20430;-60
2022/10/11 05:31:43;;;;;;;4.78;2.03;;;;;;;23.79;36.88;102419.69;4208088;28;20445;-60
2022/10/11 05:33:45;;;;;;;4.57;2.13;;;;;;;23.71;36.62;102405.34;4199981;28;20427;-60
2022/10/11 05:35:46;;;;;;;4.38;2.05;;;;;;;23.81;36.84;102422.19;4182896;28;20067;-60
2022/10/11 05:37:48;;;;;;;7.57;2.22;;;;;;;23.82;36.99;102424.75;4182892;28;20049;-60
2022/10/11 05:39:52;;;;;;;3.42;2.30;;;;;;;23.82;36.73;102424.75;4182928;28;20029;-59
2022/10/11 05:41:56;;;;;;;5.82;2.17;;;;;;;23.82;36.77;102424.75;4182609;28;20045;-60
2022/10/11 05:43:57;;;;;;;3.08;2.00;;;;;;;23.81;37.02;102431.41;4182115;28;20029;-60
2022/10/11 05:45:58;;;;;;;3.10;2.10;;;;;;;23.81;36.74;102428.63;4183210;28;20094;-60
2022/10/11 05:48:02;;;;;;;7.50;2.08;;;;;;;23.80;36.92;102428.91;4198056;28;20045;-60
2022/10/11 05:50:04;;;;;;;6.05;2.40;;;;;;;23.79;37.12;102430.84;4197925;28;20098;-60
2022/10/11 05:52:07;;;;;;;2.80;1.98;;;;;;;23.70;37.08;102415.66;4198554;28;20032;-60
2022/10/11 05:54:09;;;;;;;4.97;2.35;;;;;;;23.67;36.73;102410.59;4199031;28;20048;-59
2022/10/11 05:56:23;;;;;;;5.63;2.10;;;;;;;23.79;36.75;102428.06;4199090;28;20393;-60
2022/10/11 05:58:25;;;;;;;3.20;1.98;;;;;;;23.81;36.72;102427.78;4198735;28;20102;-60
2022/10/11 06:00:26;;;;;;;5.40;2.00;;;;;;;23.80;36.77;102426.94;4199003;28;20040;-60
2022/10/11 06:02:27;;;;;;;4.68;1.83;;;;;;;23.62;36.95;102396.56;4198778;28;20032;-60
2022/10/11 06:04:31;;;;;;;3.60;1.95;;;;;;;23.78;36.91;102434.75;4198788;28;20071;-60
2022/10/11 06:06:33;;;;;;;4.65;2.45;;;;;;;23.77;36.88;102435.00;4198515;28;20040;-60
2022/10/11 06:08:35;;;;;;;3.58;2.15;;;;;;;23.75;36.98;102432.47;4197867;28;20037;-60
2022/10/11 06:10:37;;;;;;;3.55;2.20;;;;;;;23.76;37.20;102425.78;4185032;28;20546;-60
2022/10/11 06:12:39;;;;;;;4.32;2.15;;;;;;;23.68;37.07;102417.88;4181884;28;20041;-60
2022/10/11 06:14:40;;;;;;;3.53;2.22;;;;;;;23.77;37.13;102433.06;4191068;28;20049;-60
2022/10/11 06:16:41;;;;;;;2.78;2.05;;;;;;;23.71;37.23;102425.75;4188844;28;20053;-59
2022/10/11 06:18:43;;;;;;;3.72;2.33;;;;;;;23.75;37.18;102434.44;4193274;28;20070;-60
2022/10/11 06:20:44;;;;;;;3.40;1.70;;;;;;;23.75;37.22;102438.06;4181633;28;20091;-60
2022/10/11 06:22:45;;;;;;;3.38;2.58;;;;;;;23.66;37.16;102422.91;4183217;28;20086;-60
2022/10/11 06:24:46;;;;;;;3.47;1.90;;;;;;;23.74;37.30;102438.34;4190656;28;20106;-60
2022/10/11 06:26:48;;;;;;;6.55;2.38;;;;;;;23.72;37.30;102438.59;4181773;28;20435;-60
2022/10/11 06:28:52;;;;;;;2.83;2.00;;;;;;;23.72;37.20;102440.56;4181829;28;20098;-60
2022/10/11 06:30:55;;;;;;;3.17;2.08;;;;;;;23.71;37.16;102444.47;4181634;28;20041;-60
2022/10/11 06:32:56;;;;;;;3.03;2.13;;;;;;;23.71;37.43;102450.88;4181217;28;20036;-60
2022/10/11 06:34:57;;;;;;;3.75;2.08;;;;;;;23.70;37.20;102446.41;4185973;28;20044;-60
2022/10/11 06:36:58;;;;;;;3.50;2.10;;;;;;;23.72;37.18;102440.56;4190870;28;20045;-60
2022/10/11 06:39:00;;;;;;;4.57;2.13;;;;;;;23.56;37.19;102422.75;4181682;28;20044;-60
2022/10/11 06:41:19;;;;;;;2.80;1.92;;;;;;;23.71;37.18;102450.88;4195344;28;20452;-60
2022/10/11 06:43:20;;;;;;;3.22;2.13;;;;;;;23.72;37.42;102441.38;4192431;28;20589;-60
2022/10/11 06:45:21;;;;;;;3.03;2.08;;;;;;;23.72;36.94;102441.38;4181716;28;20438;-60
2022/10/11 06:47:23;;;;;;;3.85;2.40;;;;;;;23.71;37.04;102442.50;4181707;28;20084;-60
2022/10/11 06:49:24;;;;;;;4.00;2.10;;;;;;;23.71;37.26;102445.31;4185131;28;20036;-60
2022/10/11 06:51:27;;;;;;;2.70;2.20;;;;;;;23.70;37.08;102443.63;4189195;28;20465;-60
2022/10/11 06:53:28;;;;;;;2.78;2.40;;;;;;;23.69;37.10;102436.34;4181332;28;20099;-60
2022/10/11 06:55:30;;;;;;;3.45;2.10;;;;;;;23.69;36.80;102441.09;4190558;28;20460;-60
2022/10/11 06:57:32;;;;;;;4.53;2.03;;;;;;;23.68;37.15;102434.63;4198066;28;20036;-60
2022/10/11 06:59:33;;;;;;;2.72;1.67;;;;;;;23.67;36.86;102434.91;4191800;28;20094;-60
2022/10/11 07:01:34;;;;;;;6.63;1.95;;;;;;;23.67;37.17;102438.53;4188992;28;20099;-60
2022/10/11 07:03:35;;;;;;;2.08;1.70;;;;;;;23.67;37.28;102438.53;4185284;28;20093;-60
2022/10/11 07:05:37;;;;;;;4.22;2.17;;;;;;;23.64;37.13;102439.09;4190127;28;20472;-60
2022/10/11 07:07:38;;;;;;;2.28;1.80;;;;;;;23.64;37.37;102436.31;4205837;28;20097;-60
2022/10/11 07:09:40;;;;;;;3.53;1.85;;;;;;;23.63;37.31;102434.56;4214482;28;20436;-60
2022/10/11 07:11:41;;;;;;;2.83;1.90;;;;;;;23.62;37.39;102430.09;4203525;28;20044;-60
2022/10/11 07:13:47;;;;;;;3.13;2.35;;;;;;;23.63;37.75;102437.34;4195652;28;20040;-60
2022/10/11 07:15:48;;;;;;;3.47;1.95;;;;;;;23.57;37.46;102421.66;4197836;28;20036;-60
2022/10/11 07:17:55;;;;;;;5.00;2.20;;;;;;;23.62;37.44;102429.25;4180516;28;20099;-60
2022/10/11 07:19:56;;;;;;;2.63;1.83;;;;;;;23.63;37.29;102434.56;4181335;28;20029;-60
2022/10/11 07:21:57;;;;;;;2.78;1.90;;;;;;;23.42;37.56;102401.94;4180476;28;20045;-60
2022/10/11 07:23:59;;;;;;;2.95;1.80;;;;;;;23.60;37.21;102432.31;4184047;28;20044;-60
2022/10/11 07:26:00;;;;;;;3.35;2.00;;;;;;;23.61;37.26;102424.75;4196257;28;20217;-60
2022/10/11 07:28:02;;;;;;;3.53;2.10;;;;;;;23.48;37.01;102406.47;4187718;28;20033;-60
2022/10/11 07:30:06;;;;;;;2.60;1.70;;;;;;;23.57;37.13;102428.06;4196128;28;20597;-60
2022/10/11 07:32:07;;;;;;;4.75;2.20;;;;;;;23.47;36.74;102411.22;4187292;28;20037;-60
2022/10/11 07:34:15;;;;;;;3.75;2.17;;;;;;;23.40;36.81;102395.75;4179428;28;20068;-60
2022/10/11 07:36:19;;;;;;;2.92;1.77;;;;;;;23.56;37.02;102420.81;4195279;28;20036;-60
2022/10/11 07:38:20;;;;;;;4.00;1.87;;;;;;;23.56;37.48;102423.59;4196286;28;20130;-60
2022/10/11 07:40:21;;;;;;;3.67;2.05;;;;;;;23.56;37.33;102419.97;4191205;28;20079;-60
2022/10/11 07:42:23;;;;;;;2.10;1.90;;;;;;;23.56;37.07;102419.97;4184311;28;20090;-60
2022/10/11 07:44:24;;;;;;;3.75;2.05;;;;;;;23.51;37.22;102419.91;4190695;28;20037;-60
2022/10/11 07:46:25;;;;;;;3.30;1.95;;;;;;;23.40;37.36;102395.75;4180261;28;20095;-60
2022/10/11 07:48:27;;;;;;;3.08;1.85;;;;;;;23.56;37.48;102422.75;4180953;28;20041;-60
2022/10/11 07:50:28;;;;;;;3.78;1.75;;;;;;;23.53;36.50;102417.69;4184339;28;20087;-60
2022/10/11 07:52:34;;;;;;;4.60;2.30;;;;;;;23.52;36.52;102422.44;4180232;28;20037;-60
2022/10/11 07:54:35;;;;;;;5.25;2.40;;;;;;;23.50;36.35;102421.88;4180619;28;20110;-60
2022/10/11 07:56:37;;;;;;;3.35;1.80;;;;;;;23.50;36.51;102427.47;4180854;28;20377;-60
2022/10/11 07:58:39;;;;;;;8.73;2.25;;;;;;;23.49;36.43;102424.91;4197462;28;20090;-60
2022/10/11 08:00:43;;;;;;;4.00;2.20;;;;;;;23.47;36.37;102427.97;4196996;28;20086;-60
2022/10/11 08:02:47;;;;;;;7.63;2.15;;;;;;;23.45;36.49;102429.31;4195731;28;20418;-60
2022/10/11 08:04:49;;;;;;;6.13;2.95;;;;;;;23.46;36.28;102436.59;4180944;28;20044;-59
2022/10/11 08:06:50;;;;;;;5.32;2.47;;;;;;;23.44;36.24;102434.06;4180437;28;20087;-60
2022/10/11 08:08:54;;;;;;;5.07;2.40;;;;;;;23.23;36.33;102396.72;4186917;28;20085;-60
2022/10/11 08:10:55;;;;;;;5.55;2.00;;;;;;;23.36;36.24;102426.16;4194689;28;20062;-59
2022/10/11 08:12:56;;;;;;;5.55;1.88;;;;;;;23.39;36.31;102441.56;4184894;28;20037;-59
2022/10/11 08:15:00;;;;;;;7.57;2.22;;;;;;;23.39;36.42;102441.56;4180480;28;20037;-59
2022/10/11 08:17:02;;;;;;;4.70;2.20;;;;;;;23.38;36.70;102446.31;4181122;28;20091;-59
2022/10/11 08:19:09;;;;;;;4.63;2.60;;;;;;;23.38;36.35;102448.25;4197011;28;20270;-59
2022/10/11 08:21:12;;;;;;;4.90;2.00;;;;;;;23.36;36.67;102442.06;4191963;28;20098;-59
2022/10/11 08:23:15;;;;;;;5.80;2.20;;;;;;;23.24;36.42;102429.13;4189710;28;20036;-59
2022/10/11 08:25:16;;;;;;;3.25;2.33;;;;;;;23.38;36.62;102451.06;4197037;28;20044;-60
2022/10/11 08:27:21;;;;;;;3.10;1.90;;;;;;;23.37;36.47;102454.94;4186947;28;20443;-60
2022/10/11 08:29:22;;;;;;;5.07;2.03;;;;;;;23.15;36.60;102418.66;4191696;28;20049;-60
2022/10/11 08:31:26;;;;;;;5.18;2.40;;;;;;;23.34;36.77;102453.53;4180790;28;20427;-59
2022/10/11 08:33:28;;;;;;;4.55;2.30;;;;;;;23.34;36.50;102453.53;4183742;28;20094;-59
2022/10/11 08:35:29;;;;;;;5.20;2.38;;;;;;;23.34;36.76;102459.09;4185276;28;20547;-59
2022/10/11 08:37:30;;;;;;;3.78;1.95;;;;;;;23.31;36.85;102456.81;4191743;28;20514;-59
2022/10/11 08:39:35;;;;;;;2.63;1.83;;;;;;;23.30;36.74;102455.97;4183202;28;20114;-59
2022/10/11 08:41:42;;;;;;;4.27;2.33;;;;;;;23.29;36.86;102454.31;4185428;28;20052;-59
2022/10/11 08:44:13;;;;;;;3.35;2.10;;;;;;;23.27;36.85;102462.09;4205258;28;20041;-59
2022/10/11 08:46:26;;;;;;;4.55;2.40;;;;;;;23.30;36.70;102460.72;4188467;28;20091;-59
2022/10/11 08:48:56;;;;;;;5.85;2.22;;;;;;;23.10;36.71;102435.34;4183155;28;20025;-59
2022/10/11 08:50:58;;;;;;;3.17;2.30;;;;;;;23.28;36.50;102461.00;4173076;28;20095;-59
2022/10/11 08:53:26;;;;;;;5.05;2.28;;;;;;;23.24;36.89;102461.78;4185256;28;20033;-59
2022/10/11 08:55:36;;;;;;;5.15;2.30;;;;;;;23.10;36.85;102441.78;4182693;28;20045;-59
2022/10/11 08:57:39;;;;;;;2.83;1.85;;;;;;;23.26;36.92;102468.78;4198708;28;20049;-58
2022/10/11 08:59:56;;;;;;;4.68;2.20;;;;;;;23.25;37.00;102467.09;4199872;28;20472;-59
2022/10/11 09:02:03;;;;;;;4.20;2.45;;;;;;;23.22;37.04;102470.41;4188714;28;20025;-59
2022/10/11 09:04:05;;;;;;;3.83;2.28;;;;;;;23.25;36.85;102469.88;4186542;28;20439;-59
2022/10/11 09:06:15;;;;;;;4.72;1.90;;;;;;;23.23;37.02;102472.13;4183175;28;20098;-59
2022/10/11 09:08:21;;;;;;;2.92;2.28;;;;;;;23.23;37.07;102474.91;4186228;28;20086;-59
2022/10/11 09:10:46;;;;;;;3.30;2.20;;;;;;;23.22;36.88;102483.53;4182810;28;20431;-59
2022/10/11 09:13:30;;;;;;;4.77;2.20;;;;;;;23.21;36.90;102482.69;4182078;28;20454;-58
2022/10/11 09:15:57;;;;;;;4.72;2.10;;;;;;;23.22;36.85;102484.38;4182427;28;20293;-59
2022/10/11 09:18:48;;;;;;;2.78;2.00;;;;;;;22.45;36.71;102364.38;4192707;28;20052;-59
2022/10/11 09:21:11;;;;;;;2.35;1.70;;;;;;;23.23;36.75;102494.47;4194121;28;20070;-59
2022/10/11 09:23:43;;;;;;;4.72;2.42;;;;;;;23.19;37.00;102493.28;4189554;28;20048;-59
2022/10/11 09:26:13;;;;;;;5.35;2.33;;;;;;;23.18;37.19;102497.16;4182927;28;20060;-58
2022/10/11 09:28:49;;;;;;;4.20;2.20;;;;;;;23.21;37.08;102501.38;4186472;28;20025;-61
2022/10/11 09:30:57;;;;;;;3.13;2.25;;;;;;;23.21;37.08;102510.63;4152162;28;20507;-59
2022/10/11 09:33:22;;;;;;;4.38;1.63;;;;;;;23.18;37.18;102502.75;4193589;28;20480;-60
2022/10/11 09:35:24;;;;;;;2.88;2.00;;;;;;;22.96;36.98;102460.88;4182895;28;20037;-59
2022/10/11 09:37:34;;;;;;;3.45;1.88;;;;;;;23.20;36.95;102505.28;4187342;28;20032;-59
2022/10/11 09:39:44;;;;;;;4.10;2.53;;;;;;;23.14;37.36;102490.44;4190791;28;20036;-59
2022/10/11 09:42:09;;;;;;;5.03;2.40;;;;;;;23.17;37.26;102506.66;4188319;28;20091;-59
2022/10/11 09:44:27;;;;;;;3.38;2.05;;;;;;;22.97;37.32;102472.88;4182829;28;20420;-59
2022/10/11 09:46:36;;;;;;;5.13;2.20;;;;;;;23.18;37.34;102507.47;4193661;28;20053;-58